General Aviation Weather

Text Reports

Enter one or more of the following location identifiers separated by a space:

Zip Code, Four-Character ICAO or Three-Character IATA airport codes.

METAR - Aviation Routine Weather Report
OKBK - Kuwait,
Updated at 10:00 PM GMT on July 25, 2014 (1:00 AM AST):
METAR OKBK 252200Z 35012KT CAVOK 39/11 Q0998 NOSIG
TAF - Terminal Area Forecast
OKBK - Kuwait,
Updated at 10:00 PM GMT on July 25, 2014 (1:00 AM AST):
TAF OKBK 251645Z 2518/2624 32010KT CAVOK=
Decoded:
ID: OKBK   Kuwait Intl (MI, KW
REPORT TIME: 25 16:45
VALID TIME: 25 July AT 18:00Z to 26 July AT 24:00Z.
INITIAL WX
   WINDS: 320 AT 10
   WEATHER: CAVOK
   COMMENTS: = 

PIREP - Pilot Weather Report
OKBK - Kuwait,
Updated at 10:00 PM GMT on July 25, 2014 (1:00 AM AST):
No PIREP is currently available for this location.
AIRMET - Airmens Meteorological Information
OKBK - Kuwait,
Updated at 10:00 PM GMT on July 25, 2014 (1:00 AM AST):
No AIRMET is currently available for this location.
SIGMET - Significant Meteorological Information
OKBK - Kuwait,
Updated at 10:00 PM GMT on July 25, 2014 (1:00 AM AST):
No SIGMET is currently available for this location.
NOTAM - Notice to Airmen
OKBK - Kuwait,
Updated at 10:00 PM GMT on July 25, 2014 (1:00 AM AST):
No NOTAM is currently available for this location.
Forecast Area
OKBK - Kuwait,
Updated at 10:00 PM GMT on July 25, 2014 (1:00 AM AST):
No NOTAM is currently available for this location.
Aviation Weather Maps